sensor_id;sensor_type;location;lat;lon;timestamp;P1;durP1;ratioP1;P2;durP2;ratioP2
27804;SDS011;15183;51.350;11.102;2022-12-18T00:01:25;42.00;;;21.75;;
27804;SDS011;15183;51.350;11.102;2022-12-18T00:03:55;38.25;;;20.70;;
27804;SDS011;15183;51.350;11.102;2022-12-18T00:06:22;39.75;;;20.42;;
27804;SDS011;15183;51.350;11.102;2022-12-18T00:08:51;37.35;;;19.92;;
27804;SDS011;15183;51.350;11.102;2022-12-18T00:11:20;36.00;;;17.27;;
27804;SDS011;15183;51.350;11.102;2022-12-18T00:13:49;42.05;;;17.92;;
27804;SDS011;15183;51.350;11.102;2022-12-18T00:16:17;38.95;;;19.40;;
27804;SDS011;15183;51.350;11.102;2022-12-18T00:18:47;38.13;;;18.90;;
27804;SDS011;15183;51.350;11.102;2022-12-18T00:21:15;29.83;;;16.25;;
27804;SDS011;15183;51.350;11.102;2022-12-18T00:23:44;33.55;;;17.75;;
27804;SDS011;15183;51.350;11.102;2022-12-18T00:26:33;32.17;;;17.33;;
27804;SDS011;15183;51.350;11.102;2022-12-18T00:29:01;35.88;;;17.20;;
27804;SDS011;15183;51.350;11.102;2022-12-18T00:31:39;33.60;;;16.55;;
27804;SDS011;15183;51.350;11.102;2022-12-18T00:34:09;34.13;;;19.13;;
27804;SDS011;15183;51.350;11.102;2022-12-18T00:36:38;34.78;;;17.85;;
27804;SDS011;15183;51.350;11.102;2022-12-18T00:39:06;46.25;;;18.25;;
27804;SDS011;15183;51.350;11.102;2022-12-18T00:41:33;41.25;;;19.45;;
27804;SDS011;15183;51.350;11.102;2022-12-18T00:44:18;39.17;;;20.00;;
27804;SDS011;15183;51.350;11.102;2022-12-18T00:46:46;31.65;;;15.60;;
27804;SDS011;15183;51.350;11.102;2022-12-18T00:49:14;33.15;;;17.67;;
27804;SDS011;15183;51.350;11.102;2022-12-18T00:51:43;32.00;;;16.92;;
27804;SDS011;15183;51.350;11.102;2022-12-18T00:54:10;31.25;;;16.92;;
27804;SDS011;15183;51.350;11.102;2022-12-18T00:56:37;33.30;;;17.58;;
27804;SDS011;15183;51.350;11.102;2022-12-18T00:59:05;28.23;;;16.08;;
27804;SDS011;15183;51.350;11.102;2022-12-18T01:01:31;45.85;;;18.25;;
27804;SDS011;15183;51.350;11.102;2022-12-18T01:03:59;32.60;;;16.40;;
27804;SDS011;15183;51.350;11.102;2022-12-18T01:06:27;28.20;;;16.23;;
27804;SDS011;15183;51.350;11.102;2022-12-18T01:08:54;35.83;;;17.60;;
27804;SDS011;15183;51.350;11.102;2022-12-18T01:11:21;29.35;;;16.05;;
27804;SDS011;15183;51.350;11.102;2022-12-18T01:13:48;33.05;;;16.65;;
27804;SDS011;15183;51.350;11.102;2022-12-18T01:16:15;26.00;;;15.35;;
27804;SDS011;15183;51.350;11.102;2022-12-18T01:18:43;27.88;;;16.20;;
27804;SDS011;15183;51.350;11.102;2022-12-18T01:21:11;31.48;;;16.52;;
27804;SDS011;15183;51.350;11.102;2022-12-18T01:23:40;28.30;;;16.48;;
27804;SDS011;15183;51.350;11.102;2022-12-18T01:26:11;28.10;;;14.93;;
27804;SDS011;15183;51.350;11.102;2022-12-18T01:28:41;27.13;;;15.35;;
27804;SDS011;15183;51.350;11.102;2022-12-18T01:31:13;27.90;;;16.38;;
27804;SDS011;15183;51.350;11.102;2022-12-18T01:33:46;30.83;;;16.40;;
27804;SDS011;15183;51.350;11.102;2022-12-18T01:36:15;27.75;;;15.35;;
27804;SDS011;15183;51.350;11.102;2022-12-18T01:38:50;26.23;;;15.02;;
27804;SDS011;15183;51.350;11.102;2022-12-18T01:41:20;31.00;;;16.15;;
27804;SDS011;15183;51.350;11.102;2022-12-18T01:50:13;33.63;;;16.05;;
27804;SDS011;15183;51.350;11.102;2022-12-18T01:52:41;29.70;;;16.27;;
27804;SDS011;15183;51.350;11.102;2022-12-18T01:55:10;30.10;;;16.30;;
27804;SDS011;15183;51.350;11.102;2022-12-18T01:57:38;32.83;;;17.92;;
27804;SDS011;15183;51.350;11.102;2022-12-18T02:00:11;29.67;;;16.73;;
27804;SDS011;15183;51.350;11.102;2022-12-18T02:05:09;30.75;;;17.67;;
27804;SDS011;15183;51.350;11.102;2022-12-18T02:07:43;36.85;;;18.25;;
27804;SDS011;15183;51.350;11.102;2022-12-18T02:11:03;33.40;;;18.38;;
27804;SDS011;15183;51.350;11.102;2022-12-18T02:16:26;30.50;;;17.77;;
27804;SDS011;15183;51.350;11.102;2022-12-18T02:19:15;35.33;;;18.40;;
27804;SDS011;15183;51.350;11.102;2022-12-18T02:27:56;36.53;;;19.27;;
27804;SDS011;15183;51.350;11.102;2022-12-18T02:30:26;40.47;;;18.35;;
27804;SDS011;15183;51.350;11.102;2022-12-18T02:32:57;54.95;;;18.90;;
27804;SDS011;15183;51.350;11.102;2022-12-18T02:35:25;46.60;;;18.10;;
27804;SDS011;15183;51.350;11.102;2022-12-18T02:37:55;33.95;;;17.85;;
27804;SDS011;15183;51.350;11.102;2022-12-18T02:40:24;48.83;;;18.85;;
27804;SDS011;15183;51.350;11.102;2022-12-18T02:42:54;38.47;;;18.02;;
27804;SDS011;15183;51.350;11.102;2022-12-18T02:45:20;54.05;;;17.23;;
27804;SDS011;15183;51.350;11.102;2022-12-18T02:47:48;34.20;;;17.83;;
27804;SDS011;15183;51.350;11.102;2022-12-18T02:50:24;42.92;;;18.60;;
27804;SDS011;15183;51.350;11.102;2022-12-18T02:56:03;29.50;;;16.48;;
27804;SDS011;15183;51.350;11.102;2022-12-18T02:58:47;27.98;;;16.88;;
27804;SDS011;15183;51.350;11.102;2022-12-18T03:04:16;28.83;;;16.30;;
27804;SDS011;15183;51.350;11.102;2022-12-18T03:06:56;30.48;;;16.88;;
27804;SDS011;15183;51.350;11.102;2022-12-18T03:09:35;31.67;;;16.60;;
27804;SDS011;15183;51.350;11.102;2022-12-18T03:12:18;28.42;;;15.95;;
27804;SDS011;15183;51.350;11.102;2022-12-18T03:15:15;28.92;;;16.52;;
27804;SDS011;15183;51.350;11.102;2022-12-18T03:17:55;29.83;;;15.93;;
27804;SDS011;15183;51.350;11.102;2022-12-18T03:20:29;31.38;;;18.10;;
27804;SDS011;15183;51.350;11.102;2022-12-18T03:23:00;31.52;;;17.25;;
27804;SDS011;15183;51.350;11.102;2022-12-18T03:25:37;34.35;;;17.77;;
27804;SDS011;15183;51.350;11.102;2022-12-18T03:28:09;34.13;;;17.27;;
27804;SDS011;15183;51.350;11.102;2022-12-18T03:30:41;32.90;;;17.20;;
27804;SDS011;15183;51.350;11.102;2022-12-18T03:33:18;33.67;;;17.15;;
27804;SDS011;15183;51.350;11.102;2022-12-18T03:35:55;27.17;;;15.93;;
27804;SDS011;15183;51.350;11.102;2022-12-18T03:38:21;31.27;;;17.63;;
27804;SDS011;15183;51.350;11.102;2022-12-18T03:50:29;29.52;;;15.73;;
27804;SDS011;15183;51.350;11.102;2022-12-18T03:55:42;26.75;;;15.63;;
27804;SDS011;15183;51.350;11.102;2022-12-18T03:58:11;34.00;;;16.80;;
27804;SDS011;15183;51.350;11.102;2022-12-18T04:00:42;28.13;;;15.82;;
27804;SDS011;15183;51.350;11.102;2022-12-18T04:03:09;28.92;;;16.00;;
27804;SDS011;15183;51.350;11.102;2022-12-18T04:05:37;29.67;;;16.10;;
27804;SDS011;15183;51.350;11.102;2022-12-18T04:08:04;32.78;;;17.15;;
27804;SDS011;15183;51.350;11.102;2022-12-18T04:10:30;31.90;;;16.88;;
27804;SDS011;15183;51.350;11.102;2022-12-18T04:12:57;31.67;;;16.95;;
27804;SDS011;15183;51.350;11.102;2022-12-18T04:15:24;31.60;;;16.80;;
27804;SDS011;15183;51.350;11.102;2022-12-18T04:17:50;32.00;;;16.67;;
27804;SDS011;15183;51.350;11.102;2022-12-18T04:20:17;32.60;;;17.35;;
27804;SDS011;15183;51.350;11.102;2022-12-18T04:22:44;32.92;;;17.38;;
27804;SDS011;15183;51.350;11.102;2022-12-18T04:25:10;33.47;;;17.83;;
27804;SDS011;15183;51.350;11.102;2022-12-18T04:27:37;32.00;;;16.85;;
27804;SDS011;15183;51.350;11.102;2022-12-18T04:30:03;30.92;;;16.33;;
27804;SDS011;15183;51.350;11.102;2022-12-18T04:32:31;39.00;;;17.67;;
27804;SDS011;15183;51.350;11.102;2022-12-18T04:35:00;42.75;;;18.30;;
27804;SDS011;15183;51.350;11.102;2022-12-18T04:37:26;29.70;;;15.85;;
27804;SDS011;15183;51.350;11.102;2022-12-18T04:39:53;29.50;;;15.23;;
27804;SDS011;15183;51.350;11.102;2022-12-18T04:42:19;40.95;;;16.42;;
27804;SDS011;15183;51.350;11.102;2022-12-18T04:44:46;36.22;;;18.33;;
27804;SDS011;15183;51.350;11.102;2022-12-18T04:47:12;38.97;;;19.48;;
27804;SDS011;15183;51.350;11.102;2022-12-18T04:49:39;37.55;;;18.13;;
27804;SDS011;15183;51.350;11.102;2022-12-18T04:52:06;37.90;;;19.05;;
27804;SDS011;15183;51.350;11.102;2022-12-18T04:54:33;37.53;;;18.38;;
27804;SDS011;15183;51.350;11.102;2022-12-18T04:56:59;40.53;;;17.98;;
27804;SDS011;15183;51.350;11.102;2022-12-18T04:59:26;50.35;;;18.17;;
27804;SDS011;15183;51.350;11.102;2022-12-18T05:01:52;35.88;;;17.38;;
27804;SDS011;15183;51.350;11.102;2022-12-18T05:04:18;33.88;;;16.63;;
27804;SDS011;15183;51.350;11.102;2022-12-18T05:06:45;42.53;;;16.20;;
27804;SDS011;15183;51.350;11.102;2022-12-18T05:09:11;45.95;;;16.95;;
27804;SDS011;15183;51.350;11.102;2022-12-18T05:11:38;37.65;;;17.65;;
27804;SDS011;15183;51.350;11.102;2022-12-18T05:14:04;46.05;;;19.00;;
27804;SDS011;15183;51.350;11.102;2022-12-18T05:16:31;34.22;;;16.60;;
27804;SDS011;15183;51.350;11.102;2022-12-18T05:18:57;36.78;;;16.67;;
27804;SDS011;15183;51.350;11.102;2022-12-18T05:21:24;41.72;;;18.13;;
27804;SDS011;15183;51.350;11.102;2022-12-18T05:23:50;36.47;;;17.80;;
27804;SDS011;15183;51.350;11.102;2022-12-18T05:26:17;41.17;;;18.83;;
27804;SDS011;15183;51.350;11.102;2022-12-18T05:28:44;41.50;;;18.98;;
27804;SDS011;15183;51.350;11.102;2022-12-18T05:31:11;35.30;;;17.55;;
27804;SDS011;15183;51.350;11.102;2022-12-18T05:33:38;37.35;;;17.83;;
27804;SDS011;15183;51.350;11.102;2022-12-18T05:36:06;34.20;;;16.25;;
27804;SDS011;15183;51.350;11.102;2022-12-18T05:38:35;36.60;;;16.45;;
27804;SDS011;15183;51.350;11.102;2022-12-18T05:41:04;34.20;;;17.55;;
27804;SDS011;15183;51.350;11.102;2022-12-18T05:43:33;36.88;;;17.33;;
27804;SDS011;15183;51.350;11.102;2022-12-18T05:46:05;42.95;;;16.80;;
27804;SDS011;15183;51.350;11.102;2022-12-18T05:48:39;56.45;;;18.50;;
27804;SDS011;15183;51.350;11.102;2022-12-18T05:51:07;33.45;;;16.92;;
27804;SDS011;15183;51.350;11.102;2022-12-18T05:53:37;38.90;;;14.95;;
27804;SDS011;15183;51.350;11.102;2022-12-18T05:56:04;43.95;;;15.40;;
27804;SDS011;15183;51.350;11.102;2022-12-18T05:58:33;41.08;;;15.40;;
27804;SDS011;15183;51.350;11.102;2022-12-18T06:01:34;46.50;;;14.35;;
27804;SDS011;15183;51.350;11.102;2022-12-18T06:03:53;39.55;;;14.73;;
27804;SDS011;15183;51.350;11.102;2022-12-18T06:06:22;30.90;;;14.50;;
27804;SDS011;15183;51.350;11.102;2022-12-18T06:08:51;29.90;;;15.30;;
27804;SDS011;15183;51.350;11.102;2022-12-18T06:11:20;21.98;;;12.70;;
27804;SDS011;15183;51.350;11.102;2022-12-18T06:13:50;30.30;;;15.07;;
27804;SDS011;15183;51.350;11.102;2022-12-18T06:16:18;35.28;;;15.35;;
27804;SDS011;15183;51.350;11.102;2022-12-18T06:18:45;30.83;;;15.15;;
27804;SDS011;15183;51.350;11.102;2022-12-18T06:21:11;29.15;;;13.25;;
27804;SDS011;15183;51.350;11.102;2022-12-18T06:23:38;30.42;;;13.88;;
27804;SDS011;15183;51.350;11.102;2022-12-18T06:26:06;27.35;;;13.75;;
27804;SDS011;15183;51.350;11.102;2022-12-18T06:28:35;25.30;;;13.95;;
27804;SDS011;15183;51.350;11.102;2022-12-18T06:31:05;26.17;;;13.32;;
27804;SDS011;15183;51.350;11.102;2022-12-18T06:33:32;24.95;;;12.82;;
27804;SDS011;15183;51.350;11.102;2022-12-18T06:36:01;31.65;;;15.73;;
27804;SDS011;15183;51.350;11.102;2022-12-18T06:38:37;32.15;;;15.02;;
27804;SDS011;15183;51.350;11.102;2022-12-18T06:41:07;31.52;;;13.85;;
27804;SDS011;15183;51.350;11.102;2022-12-18T06:43:46;34.63;;;15.32;;
27804;SDS011;15183;51.350;11.102;2022-12-18T06:46:12;28.25;;;15.23;;
27804;SDS011;15183;51.350;11.102;2022-12-18T06:48:39;33.00;;;15.68;;
27804;SDS011;15183;51.350;11.102;2022-12-18T06:51:06;29.40;;;15.80;;
27804;SDS011;15183;51.350;11.102;2022-12-18T06:53:34;33.20;;;15.85;;
27804;SDS011;15183;51.350;11.102;2022-12-18T06:56:01;32.30;;;14.63;;
27804;SDS011;15183;51.350;11.102;2022-12-18T06:58:32;31.48;;;15.27;;
27804;SDS011;15183;51.350;11.102;2022-12-18T07:01:00;35.33;;;16.15;;
27804;SDS011;15183;51.350;11.102;2022-12-18T07:03:31;33.53;;;17.05;;
27804;SDS011;15183;51.350;11.102;2022-12-18T07:05:58;32.72;;;16.42;;
27804;SDS011;15183;51.350;11.102;2022-12-18T07:08:24;32.97;;;16.90;;
27804;SDS011;15183;51.350;11.102;2022-12-18T07:10:51;30.40;;;16.08;;
27804;SDS011;15183;51.350;11.102;2022-12-18T07:13:19;29.40;;;16.00;;
27804;SDS011;15183;51.350;11.102;2022-12-18T07:15:46;33.45;;;16.80;;
27804;SDS011;15183;51.350;11.102;2022-12-18T07:18:12;29.77;;;14.88;;
27804;SDS011;15183;51.350;11.102;2022-12-18T07:20:38;27.92;;;14.50;;
27804;SDS011;15183;51.350;11.102;2022-12-18T07:23:05;37.97;;;16.95;;
27804;SDS011;15183;51.350;11.102;2022-12-18T07:25:35;33.70;;;16.15;;
27804;SDS011;15183;51.350;11.102;2022-12-18T07:28:02;49.63;;;16.73;;
27804;SDS011;15183;51.350;11.102;2022-12-18T07:30:29;32.20;;;16.83;;
27804;SDS011;15183;51.350;11.102;2022-12-18T07:32:56;44.35;;;19.05;;
27804;SDS011;15183;51.350;11.102;2022-12-18T07:35:22;45.80;;;18.35;;
27804;SDS011;15183;51.350;11.102;2022-12-18T07:37:49;42.97;;;20.90;;
27804;SDS011;15183;51.350;11.102;2022-12-18T07:40:15;41.17;;;21.02;;
27804;SDS011;15183;51.350;11.102;2022-12-18T07:42:42;58.08;;;19.80;;
27804;SDS011;15183;51.350;11.102;2022-12-18T07:45:08;45.90;;;20.40;;
27804;SDS011;15183;51.350;11.102;2022-12-18T07:47:36;45.80;;;19.65;;
27804;SDS011;15183;51.350;11.102;2022-12-18T07:50:03;41.70;;;19.00;;
27804;SDS011;15183;51.350;11.102;2022-12-18T07:52:30;56.22;;;20.73;;
27804;SDS011;15183;51.350;11.102;2022-12-18T07:54:57;57.92;;;19.42;;
27804;SDS011;15183;51.350;11.102;2022-12-18T07:57:23;71.80;;;20.85;;
27804;SDS011;15183;51.350;11.102;2022-12-18T07:59:49;77.38;;;20.88;;
27804;SDS011;15183;51.350;11.102;2022-12-18T08:02:16;42.55;;;20.85;;
27804;SDS011;15183;51.350;11.102;2022-12-18T08:04:42;51.20;;;21.98;;
27804;SDS011;15183;51.350;11.102;2022-12-18T08:07:09;45.53;;;21.15;;
27804;SDS011;15183;51.350;11.102;2022-12-18T08:09:35;47.80;;;21.05;;
27804;SDS011;15183;51.350;11.102;2022-12-18T08:12:02;46.88;;;20.60;;
27804;SDS011;15183;51.350;11.102;2022-12-18T08:14:28;61.35;;;22.25;;
27804;SDS011;15183;51.350;11.102;2022-12-18T08:16:55;67.82;;;27.20;;
27804;SDS011;15183;51.350;11.102;2022-12-18T08:19:21;61.85;;;27.30;;
27804;SDS011;15183;51.350;11.102;2022-12-18T08:21:48;60.15;;;27.98;;
27804;SDS011;15183;51.350;11.102;2022-12-18T08:24:14;52.33;;;25.45;;
27804;SDS011;15183;51.350;11.102;2022-12-18T08:26:41;50.58;;;26.08;;
27804;SDS011;15183;51.350;11.102;2022-12-18T08:29:08;73.97;;;35.22;;
27804;SDS011;15183;51.350;11.102;2022-12-18T08:31:37;61.28;;;29.50;;
27804;SDS011;15183;51.350;11.102;2022-12-18T08:34:04;56.30;;;26.30;;
27804;SDS011;15183;51.350;11.102;2022-12-18T08:36:30;57.47;;;26.98;;
27804;SDS011;15183;51.350;11.102;2022-12-18T08:38:57;68.78;;;31.98;;
27804;SDS011;15183;51.350;11.102;2022-12-18T08:41:23;52.80;;;25.42;;
27804;SDS011;15183;51.350;11.102;2022-12-18T08:43:50;53.50;;;25.65;;
27804;SDS011;15183;51.350;11.102;2022-12-18T08:46:39;58.95;;;27.23;;
27804;SDS011;15183;51.350;11.102;2022-12-18T08:49:08;53.53;;;25.77;;
27804;SDS011;15183;51.350;11.102;2022-12-18T08:51:36;65.45;;;31.13;;
27804;SDS011;15183;51.350;11.102;2022-12-18T08:54:03;66.22;;;29.40;;
27804;SDS011;15183;51.350;11.102;2022-12-18T08:56:32;60.80;;;29.67;;
27804;SDS011;15183;51.350;11.102;2022-12-18T08:58:59;73.00;;;30.63;;
27804;SDS011;15183;51.350;11.102;2022-12-18T09:01:26;95.68;;;35.10;;
27804;SDS011;15183;51.350;11.102;2022-12-18T09:03:52;67.05;;;27.98;;
27804;SDS011;15183;51.350;11.102;2022-12-18T09:06:19;82.10;;;23.45;;
27804;SDS011;15183;51.350;11.102;2022-12-18T09:08:47;55.45;;;26.60;;
27804;SDS011;15183;51.350;11.102;2022-12-18T09:11:15;56.22;;;24.83;;
27804;SDS011;15183;51.350;11.102;2022-12-18T09:13:51;74.93;;;23.58;;
27804;SDS011;15183;51.350;11.102;2022-12-18T09:16:19;56.15;;;24.73;;
27804;SDS011;15183;51.350;11.102;2022-12-18T09:18:47;61.58;;;22.98;;
27804;SDS011;15183;51.350;11.102;2022-12-18T09:21:18;64.38;;;28.35;;
27804;SDS011;15183;51.350;11.102;2022-12-18T09:23:49;42.78;;;20.60;;
27804;SDS011;15183;51.350;11.102;2022-12-18T09:26:17;66.07;;;32.22;;
27804;SDS011;15183;51.350;11.102;2022-12-18T09:28:43;51.30;;;24.02;;
27804;SDS011;15183;51.350;11.102;2022-12-18T09:31:11;47.55;;;19.00;;
27804;SDS011;15183;51.350;11.102;2022-12-18T09:33:38;42.67;;;18.83;;
27804;SDS011;15183;51.350;11.102;2022-12-18T09:36:05;57.45;;;28.75;;
27804;SDS011;15183;51.350;11.102;2022-12-18T09:38:35;37.00;;;18.08;;
27804;SDS011;15183;51.350;11.102;2022-12-18T09:41:06;66.53;;;27.77;;
27804;SDS011;15183;51.350;11.102;2022-12-18T09:44:05;63.40;;;31.50;;
27804;SDS011;15183;51.350;11.102;2022-12-18T09:46:50;60.85;;;27.92;;
27804;SDS011;15183;51.350;11.102;2022-12-18T09:49:26;71.85;;;33.80;;
27804;SDS011;15183;51.350;11.102;2022-12-18T09:51:59;75.85;;;37.25;;
27804;SDS011;15183;51.350;11.102;2022-12-18T09:54:46;67.00;;;27.17;;
27804;SDS011;15183;51.350;11.102;2022-12-18T09:57:28;80.30;;;28.02;;
27804;SDS011;15183;51.350;11.102;2022-12-18T10:00:02;73.30;;;34.22;;
27804;SDS011;15183;51.350;11.102;2022-12-18T10:02:40;61.05;;;30.63;;
27804;SDS011;15183;51.350;11.102;2022-12-18T10:05:14;59.38;;;29.83;;
27804;SDS011;15183;51.350;11.102;2022-12-18T10:07:53;52.22;;;25.08;;
27804;SDS011;15183;51.350;11.102;2022-12-18T10:10:37;42.35;;;21.60;;
27804;SDS011;15183;51.350;11.102;2022-12-18T10:15:49;55.03;;;24.45;;
27804;SDS011;15183;51.350;11.102;2022-12-18T10:21:25;49.70;;;24.85;;
27804;SDS011;15183;51.350;11.102;2022-12-18T10:24:19;51.25;;;25.45;;
27804;SDS011;15183;51.350;11.102;2022-12-18T10:27:21;42.17;;;22.42;;
27804;SDS011;15183;51.350;11.102;2022-12-18T10:29:51;60.45;;;27.90;;
27804;SDS011;15183;51.350;11.102;2022-12-18T10:32:23;43.03;;;19.80;;
27804;SDS011;15183;51.350;11.102;2022-12-18T10:34:55;47.95;;;24.17;;
27804;SDS011;15183;51.350;11.102;2022-12-18T10:37:25;54.38;;;27.02;;
27804;SDS011;15183;51.350;11.102;2022-12-18T10:42:39;44.05;;;23.05;;
27804;SDS011;15183;51.350;11.102;2022-12-18T10:45:12;44.13;;;23.23;;
27804;SDS011;15183;51.350;11.102;2022-12-18T10:47:47;45.95;;;24.55;;
27804;SDS011;15183;51.350;11.102;2022-12-18T10:50:19;54.20;;;27.08;;
27804;SDS011;15183;51.350;11.102;2022-12-18T10:52:57;48.38;;;26.05;;
27804;SDS011;15183;51.350;11.102;2022-12-18T10:55:33;65.00;;;32.25;;
27804;SDS011;15183;51.350;11.102;2022-12-18T11:03:46;50.20;;;25.05;;
27804;SDS011;15183;51.350;11.102;2022-12-18T11:06:25;58.47;;;29.30;;
27804;SDS011;15183;51.350;11.102;2022-12-18T11:09:02;63.28;;;32.33;;
27804;SDS011;15183;51.350;11.102;2022-12-18T11:11:32;64.72;;;31.23;;
27804;SDS011;15183;51.350;11.102;2022-12-18T11:14:01;58.08;;;29.02;;
27804;SDS011;15183;51.350;11.102;2022-12-18T11:16:43;56.35;;;28.90;;
27804;SDS011;15183;51.350;11.102;2022-12-18T11:19:17;55.72;;;27.90;;
27804;SDS011;15183;51.350;11.102;2022-12-18T11:22:19;66.60;;;32.65;;
27804;SDS011;15183;51.350;11.102;2022-12-18T11:25:02;49.60;;;24.55;;
27804;SDS011;15183;51.350;11.102;2022-12-18T11:27:53;44.83;;;23.75;;
27804;SDS011;15183;51.350;11.102;2022-12-18T11:30:36;44.65;;;23.40;;
27804;SDS011;15183;51.350;11.102;2022-12-18T11:35:55;38.28;;;21.73;;
27804;SDS011;15183;51.350;11.102;2022-12-18T11:38:33;43.65;;;24.77;;
27804;SDS011;15183;51.350;11.102;2022-12-18T11:44:35;43.92;;;22.55;;
27804;SDS011;15183;51.350;11.102;2022-12-18T11:47:28;41.88;;;20.88;;
27804;SDS011;15183;51.350;11.102;2022-12-18T11:50:19;56.45;;;27.70;;
27804;SDS011;15183;51.350;11.102;2022-12-18T11:52:50;51.58;;;26.65;;
27804;SDS011;15183;51.350;11.102;2022-12-18T12:11:53;59.53;;;27.67;;
27804;SDS011;15183;51.350;11.102;2022-12-18T12:21:04;47.63;;;24.13;;
27804;SDS011;15183;51.350;11.102;2022-12-18T12:23:57;45.60;;;24.75;;
27804;SDS011;15183;51.350;11.102;2022-12-18T12:27:01;67.28;;;35.20;;
27804;SDS011;15183;51.350;11.102;2022-12-18T12:30:07;68.85;;;34.33;;
27804;SDS011;15183;51.350;11.102;2022-12-18T12:33:02;62.80;;;30.60;;
27804;SDS011;15183;51.350;11.102;2022-12-18T12:35:58;78.68;;;38.65;;
27804;SDS011;15183;51.350;11.102;2022-12-18T12:38:52;59.65;;;30.63;;
27804;SDS011;15183;51.350;11.102;2022-12-18T12:41:27;53.20;;;26.52;;
27804;SDS011;15183;51.350;11.102;2022-12-18T12:44:18;48.25;;;25.38;;
27804;SDS011;15183;51.350;11.102;2022-12-18T12:47:20;71.43;;;36.95;;
27804;SDS011;15183;51.350;11.102;2022-12-18T12:49:50;51.90;;;26.73;;
27804;SDS011;15183;51.350;11.102;2022-12-18T12:52:21;69.30;;;35.10;;
27804;SDS011;15183;51.350;11.102;2022-12-18T12:57:37;48.22;;;23.40;;
27804;SDS011;15183;51.350;11.102;2022-12-18T13:00:10;59.90;;;29.35;;
27804;SDS011;15183;51.350;11.102;2022-12-18T13:02:47;51.60;;;25.77;;
27804;SDS011;15183;51.350;11.102;2022-12-18T13:05:50;53.55;;;26.77;;
27804;SDS011;15183;51.350;11.102;2022-12-18T13:08:28;56.08;;;28.00;;
27804;SDS011;15183;51.350;11.102;2022-12-18T13:10:59;55.10;;;28.30;;
27804;SDS011;15183;51.350;11.102;2022-12-18T13:13:52;60.10;;;29.48;;
27804;SDS011;15183;51.350;11.102;2022-12-18T13:16:22;58.85;;;26.88;;
27804;SDS011;15183;51.350;11.102;2022-12-18T13:18:51;56.00;;;27.10;;
27804;SDS011;15183;51.350;11.102;2022-12-18T13:21:26;47.75;;;25.25;;
27804;SDS011;15183;51.350;11.102;2022-12-18T13:23:56;49.83;;;26.15;;
27804;SDS011;15183;51.350;11.102;2022-12-18T13:26:40;58.38;;;30.20;;
27804;SDS011;15183;51.350;11.102;2022-12-18T13:29:06;48.00;;;24.38;;
27804;SDS011;15183;51.350;11.102;2022-12-18T13:34:24;57.80;;;29.02;;
27804;SDS011;15183;51.350;11.102;2022-12-18T13:36:53;62.45;;;29.98;;
27804;SDS011;15183;51.350;11.102;2022-12-18T13:44:36;57.13;;;27.95;;
27804;SDS011;15183;51.350;11.102;2022-12-18T13:47:24;57.08;;;30.02;;
27804;SDS011;15183;51.350;11.102;2022-12-18T13:50:24;54.42;;;26.42;;
27804;SDS011;15183;51.350;11.102;2022-12-18T13:52:51;53.42;;;26.63;;
27804;SDS011;15183;51.350;11.102;2022-12-18T13:55:19;46.33;;;23.08;;
27804;SDS011;15183;51.350;11.102;2022-12-18T13:57:47;47.40;;;24.67;;
27804;SDS011;15183;51.350;11.102;2022-12-18T14:00:35;48.72;;;26.42;;
27804;SDS011;15183;51.350;11.102;2022-12-18T14:03:00;60.17;;;30.48;;
27804;SDS011;15183;51.350;11.102;2022-12-18T14:05:28;64.75;;;30.83;;
27804;SDS011;15183;51.350;11.102;2022-12-18T14:08:03;56.80;;;29.23;;
27804;SDS011;15183;51.350;11.102;2022-12-18T14:10:39;52.72;;;27.30;;
27804;SDS011;15183;51.350;11.102;2022-12-18T14:13:17;67.63;;;32.30;;
27804;SDS011;15183;51.350;11.102;2022-12-18T14:15:57;70.57;;;34.20;;
27804;SDS011;15183;51.350;11.102;2022-12-18T14:21:27;122.53;;;51.72;;
27804;SDS011;15183;51.350;11.102;2022-12-18T14:26:34;133.13;;;55.30;;
27804;SDS011;15183;51.350;11.102;2022-12-18T14:34:53;82.00;;;37.50;;
27804;SDS011;15183;51.350;11.102;2022-12-18T14:37:22;80.53;;;38.03;;
27804;SDS011;15183;51.350;11.102;2022-12-18T14:39:55;78.80;;;38.22;;
27804;SDS011;15183;51.350;11.102;2022-12-18T14:42:25;66.10;;;31.67;;
27804;SDS011;15183;51.350;11.102;2022-12-18T14:47:58;60.45;;;30.08;;
27804;SDS011;15183;51.350;11.102;2022-12-18T14:50:26;65.03;;;32.08;;
27804;SDS011;15183;51.350;11.102;2022-12-18T14:52:52;59.70;;;28.85;;
27804;SDS011;15183;51.350;11.102;2022-12-18T14:55:19;59.95;;;31.88;;
27804;SDS011;15183;51.350;11.102;2022-12-18T14:57:49;57.63;;;29.98;;
27804;SDS011;15183;51.350;11.102;2022-12-18T15:00:20;57.03;;;27.70;;
27804;SDS011;15183;51.350;11.102;2022-12-18T15:02:52;65.53;;;31.13;;
27804;SDS011;15183;51.350;11.102;2022-12-18T15:05:26;56.53;;;27.02;;
27804;SDS011;15183;51.350;11.102;2022-12-18T15:07:56;53.65;;;27.52;;
27804;SDS011;15183;51.350;11.102;2022-12-18T15:10:26;52.15;;;25.67;;
27804;SDS011;15183;51.350;11.102;2022-12-18T15:20:48;81.93;;;39.67;;
27804;SDS011;15183;51.350;11.102;2022-12-18T15:23:35;55.92;;;29.33;;
27804;SDS011;15183;51.350;11.102;2022-12-18T15:26:18;47.70;;;25.80;;
27804;SDS011;15183;51.350;11.102;2022-12-18T15:28:51;48.83;;;25.65;;
27804;SDS011;15183;51.350;11.102;2022-12-18T15:31:26;51.95;;;25.63;;
27804;SDS011;15183;51.350;11.102;2022-12-18T15:36:39;51.28;;;26.30;;
27804;SDS011;15183;51.350;11.102;2022-12-18T15:39:05;51.75;;;26.05;;
27804;SDS011;15183;51.350;11.102;2022-12-18T15:41:33;51.35;;;25.77;;
27804;SDS011;15183;51.350;11.102;2022-12-18T15:44:01;57.17;;;28.17;;
27804;SDS011;15183;51.350;11.102;2022-12-18T15:46:28;48.03;;;25.98;;
27804;SDS011;15183;51.350;11.102;2022-12-18T15:48:56;47.17;;;25.98;;
27804;SDS011;15183;51.350;11.102;2022-12-18T15:51:24;49.53;;;25.08;;
27804;SDS011;15183;51.350;11.102;2022-12-18T15:54:04;51.33;;;26.55;;
27804;SDS011;15183;51.350;11.102;2022-12-18T15:56:38;48.90;;;25.55;;
27804;SDS011;15183;51.350;11.102;2022-12-18T15:59:23;50.38;;;25.63;;
27804;SDS011;15183;51.350;11.102;2022-12-18T16:01:50;53.15;;;26.88;;
27804;SDS011;15183;51.350;11.102;2022-12-18T16:04:21;53.35;;;27.73;;
27804;SDS011;15183;51.350;11.102;2022-12-18T16:06:48;48.13;;;25.95;;
27804;SDS011;15183;51.350;11.102;2022-12-18T16:09:15;44.28;;;24.75;;
27804;SDS011;15183;51.350;11.102;2022-12-18T16:11:42;40.38;;;22.58;;
27804;SDS011;15183;51.350;11.102;2022-12-18T16:16:53;50.45;;;25.33;;
27804;SDS011;15183;51.350;11.102;2022-12-18T16:19:25;58.05;;;27.80;;
27804;SDS011;15183;51.350;11.102;2022-12-18T16:21:54;60.58;;;27.10;;
27804;SDS011;15183;51.350;11.102;2022-12-18T16:24:23;54.40;;;27.23;;
27804;SDS011;15183;51.350;11.102;2022-12-18T16:26:52;57.58;;;28.02;;
27804;SDS011;15183;51.350;11.102;2022-12-18T16:29:21;48.10;;;25.88;;
27804;SDS011;15183;51.350;11.102;2022-12-18T16:31:50;49.40;;;25.15;;
27804;SDS011;15183;51.350;11.102;2022-12-18T16:37:06;66.57;;;32.25;;